Report METAR

 

KSJC - San Jose, California, USA
Distance from station: NE 14km
Dati ricevuti: 17/09/2021 03:53
Sereno
Sereno
 Vento da NO
Vento: NO 20 km/h
Temperatura: 19°C
P.to Rugiada: 13°C
Umidità: 68%
Barometro: 1010.2 hPa
Nuvole: Sereno
Visibility: 16 km
2021/09/17 01:53 KSJC 170153Z 32011KT 10SM CLR 19/13 A2983 RMK AO2 SLP100 T01890128
KNUQ - Moffett Nas/Mtn, California, USA
Distance from station: N 14km
Dati ricevuti: 22/08/2021 13:40
DATI Obsoleti
Coperto
Coperto
 Vento da SSE
Vento: SSE 11 km/h
Temperatura: 16°C
P.to Rugiada: 12°C
Umidità: 77%
Barometro: 1009.8 hPa
Nuvole: Coperto
Visibility: 16 km
Cloud details: Coperto 549 m
2021/08/22 11:40 KNUQ 221140Z AUTO 16006KT 10SM OVC018 16/12 A2982 RMK AO2
 
KPAO - Palo Alto, California, USA
Distance from station: NNO 23km
Dati ricevuti: 17/09/2021 03:47
Sereno
Sereno
 Vento da NO
Vento: NO 19 km/h
Temperatura: 17°C
P.to Rugiada: 12°C
Umidità: 73%
Barometro: 1010.2 hPa
Nuvole: Sereno
Visibility: 16 km
2021/09/17 01:47 KPAO 170147Z 32010KT 10SM SKC 17/12 A2983
KRHV - San Jose/Reid, California, USA
Distance from station: ENE 19km
Dati ricevuti: 17/09/2021 03:51
Sereno
Sereno
 Vento da NO
Vento: NO 17 km/h
Temperatura: 20°C
P.to Rugiada: 13°C
Umidità: 64%
Barometro: 1010.2 hPa
Nuvole: Sereno
Visibility: 16 km
2021/09/17 01:51 KRHV 170151Z 31009KT 10SM SKC 20/13 A2983
 
KOAK - Oakland, California, USA
Distance from station: NNO 50km
Dati ricevuti: 17/09/2021 03:53
Few Clouds
Few Clouds
 Vento da ONO
Vento: ONO 22 km/h
Temperatura: 17°C
P.to Rugiada: 12°C
Umidità: 73%
Barometro: 1010.8 hPa
Nuvole: Few Clouds
Visibility: 16 km
Cloud details: Few Clouds 488 m
2021/09/17 01:53 KOAK 170153Z 29012KT 10SM FEW016 17/12 A2985 RMK AO2 SLP109 T01670117
KSQL - San Carlos Airpo, California, USA
Distance from station: NO 34km
Dati ricevuti: 17/09/2021 03:47
Sereno
Sereno
 Vento da O
Vento: O 19 km/h
Temperatura: 17°C
P.to Rugiada: 12°C
Umidità: 73%
Barometro: 1010.5 hPa
Nuvole: Sereno
Visibility: 16 km
2021/09/17 01:47 KSQL 170147Z 26010KT 10SM CLR 17/12 A2984
 
KSFO - San Francisco, California, USA
Distance from station: NO 49km
Dati ricevuti: 17/09/2021 03:56
Few Clouds
Few Clouds
 Vento da O
Vento: O 20 km/h
Temperatura: 17°C
P.to Rugiada: 11°C
Umidità: 68%
Barometro: 1010.2 hPa
Nuvole: Few Clouds
Visibility: 16 km
Cloud details: Few Clouds 244 m
2021/09/17 01:56 KSFO 170156Z 28011KT 10SM FEW008 17/11 A2983 RMK AO2 SLP102 T01670111
KE16 - San Martin, California, USA
Distance from station: ESE 43km
Dati ricevuti: 17/09/2021 04:35
Few Clouds
Few Clouds
 Vento da SSE
Vento: SSE 15 km/h
Temperatura: 15°C
P.to Rugiada: 11°C
Umidità: 77%
Barometro: 1011.9 hPa
Nuvole: Few Clouds
Visibility: 16 km
Cloud details: Few Clouds 1158 m
2021/09/17 02:35 KE16 170235Z AUTO 15008KT 10SM FEW038 15/11 A2988 RMK AO2 PWINO PNO
 
KWVI - Watsonville, California, USA
Distance from station: SSE 44km
Dati ricevuti: 17/09/2021 03:53
Coperto
Coperto
 Vento da OSO
Vento: OSO 13 km/h
Temperatura: 14°C
P.to Rugiada: 12°C
Umidità: 88%
Barometro: 1011.9 hPa
Nuvole: Coperto
Visibility: 16 km
Cloud details: Coperto 335 m
2021/09/17 01:53 KWVI 170153Z AUTO 25007KT 10SM OVC011 14/12 A2988 RMK AO2 SLP117 T01440117
KHAF - Half Moon Bay, California, USA
Distance from station: ONO 50km
Dati ricevuti: 17/09/2021 04:35
Mist, Coperto
Mist, Coperto
 Vento da SO
Vento: SO 7 km/h
Temperatura: 14°C
P.to Rugiada: 12°C
Umidità: 88%
Barometro: 1011.9 hPa
Summary: Mist
Nuvole: Coperto
Visibility: 6 km
Cloud details: Coperto 305 m
2021/09/17 02:35 KHAF 170235Z AUTO 23004KT 4SM BR OVC010 14/12 A2988 RMK AO2 PWINO
 
KHWD - Hayward, California, USA
Distance from station: N 44km
Dati ricevuti: 17/09/2021 03:54
Sereno
Sereno
 Vento da ONO
Vento: ONO 20 km/h
Temperatura: 16°C
P.to Rugiada: 12°C
Umidità: 77%
Barometro: 1010.5 hPa
Nuvole: Sereno
Visibility: 16 km
2021/09/17 01:54 KHWD 170154Z 30011KT 10SM CLR 16/12 A2984 RMK AO2 SLP113 T01610122
KLVK - Livermore, California, USA
Distance from station: NNE 51km
Dati ricevuti: 17/09/2021 03:53
Sereno
Sereno
 Vento da ONO
Vento: ONO 26 km/h
Temperatura: 19°C
P.to Rugiada: 12°C
Umidità: 64%
Barometro: 1009.1 hPa
Nuvole: Sereno
Visibility: 16 km
2021/09/17 01:53 KLVK 170153Z 29014KT 10SM CLR 19/12 A2980 RMK AO2 SLP089 T01890117